createdAt,value
2019-05-07T00:00:43.645Z,81.93
2019-05-07T00:01:42.347Z,82.55
2019-05-07T00:02:42.799Z,83.27
2019-05-07T00:03:42.270Z,82.89
2019-05-07T00:04:42.808Z,83.06
2019-05-07T00:05:42.800Z,82.75
2019-05-07T00:06:43.449Z,84.03
2019-05-07T00:07:43.067Z,83.72
2019-05-07T00:08:44.921Z,84.23
2019-05-07T00:09:43.153Z,85.52
2019-05-07T00:10:43.009Z,86.13
2019-05-07T00:11:42.696Z,84.36
2019-05-07T00:12:44.073Z,86.63
2019-05-07T00:13:44.427Z,85.49
2019-05-07T00:14:47.216Z,85.80
2019-05-07T00:15:45.589Z,86.11
2019-05-07T00:16:43.171Z,86.83
2019-05-07T00:17:44.085Z,86.83
2019-05-07T00:18:43.508Z,87.66
2019-05-07T00:19:43.683Z,87.76
2019-05-07T00:20:43.853Z,87.91
2019-05-07T00:21:44.005Z,87.91
2019-05-07T00:22:45.094Z,87.60
2019-05-07T00:23:45.116Z,88.07
2019-05-07T00:24:45.120Z,88.07
2019-05-07T00:25:44.606Z,88.18
2019-05-07T00:26:45.585Z,89.01
2019-05-07T00:27:45.580Z,88.39
2019-05-07T00:28:45.606Z,88.90
2019-05-07T00:29:45.269Z,89.22
2019-05-07T00:30:45.434Z,89.62
2019-05-07T00:31:46.094Z,90.04
2019-05-07T00:32:46.602Z,89.73
2019-05-07T00:33:46.979Z,89.73
2019-05-07T00:34:46.581Z,89.83
2019-05-07T00:35:46.631Z,90.77
2019-05-07T00:36:46.499Z,90.83
2019-05-07T00:37:46.650Z,90.77
2019-05-07T00:38:47.609Z,90.87
2019-05-07T00:39:46.987Z,91.07
2019-05-07T00:40:47.152Z,90.87
2019-05-07T00:41:47.267Z,90.87
2019-05-07T00:42:49.084Z,90.87
2019-05-07T00:43:47.692Z,90.77
2019-05-07T00:44:48.604Z,90.25
2019-05-07T00:45:48.003Z,90.25
2019-05-07T00:46:49.092Z,90.35
2019-05-07T00:47:49.085Z,90.66
2019-05-07T00:48:48.553Z,90.77
2019-05-07T00:50:09.694Z,90.77
2019-05-07T00:50:49.095Z,90.97
2019-05-07T00:51:49.090Z,90.87
2019-05-07T00:52:52.220Z,90.77
2019-05-07T00:53:49.350Z,90.97
2019-05-07T00:54:49.486Z,90.87
2019-05-07T00:55:49.629Z,90.77
2019-05-07T00:56:51.991Z,90.87
2019-05-07T00:57:50.002Z,90.97
2019-05-07T00:58:52.534Z,90.77
2019-05-07T00:59:52.323Z,90.87
2019-05-07T01:00:50.449Z,90.91
2019-05-07T01:01:52.654Z,90.77
2019-05-07T01:02:52.529Z,90.87
2019-05-07T01:03:53.427Z,90.66
2019-05-07T01:04:53.389Z,90.77
2019-05-07T01:05:52.881Z,90.56
2019-05-07T01:06:53.276Z,90.14
2019-05-07T01:07:53.056Z,89.56
2019-05-07T01:08:52.944Z,89.62
2019-05-07T01:09:52.473Z,90.25
2019-05-07T01:10:53.346Z,89.94
2019-05-07T01:11:52.594Z,89.94
2019-05-07T01:12:53.593Z,89.42
2019-05-07T01:13:52.956Z,89.87
2019-05-07T01:14:53.101Z,90.04
2019-05-07T01:16:14.199Z,89.94
2019-05-07T01:16:54.431Z,89.42
2019-05-07T01:17:53.516Z,89.22
2019-05-07T01:18:53.888Z,89.56
2019-05-07T01:19:55.626Z,89.52
2019-05-07T01:20:54.605Z,89.32
2019-05-07T01:21:54.623Z,89.83
2019-05-07T01:22:54.833Z,89.62
2019-05-07T01:23:55.616Z,90.14
2019-05-07T01:24:54.720Z,90.14
2019-05-07T01:25:54.879Z,90.14
2019-05-07T01:26:55.595Z,91.07
2019-05-07T01:27:55.602Z,90.91
2019-05-07T01:28:55.499Z,90.56
2019-05-07T01:29:55.636Z,90.77
2019-05-07T01:30:55.790Z,90.87
2019-05-07T01:31:55.931Z,91.28
2019-05-07T01:32:56.112Z,91.11
2019-05-07T01:33:56.245Z,90.70
2019-05-07T01:34:56.357Z,91.01
2019-05-07T01:35:56.513Z,90.91
2019-05-07T01:36:57.609Z,91.11
2019-05-07T01:37:57.121Z,91.11
2019-05-07T01:38:57.622Z,90.91
2019-05-07T01:39:57.120Z,90.08
2019-05-07T01:40:57.261Z,90.08
2019-05-07T01:41:57.426Z,89.77
2019-05-07T01:42:57.618Z,89.56
2019-05-07T01:43:57.784Z,89.77
2019-05-07T01:44:58.614Z,89.77
2019-05-07T01:45:59.093Z,89.56
2019-05-07T01:46:58.335Z,89.98
2019-05-07T01:47:58.504Z,89.67
2019-05-07T01:48:58.638Z,89.87
2019-05-07T01:49:58.822Z,90.19
2019-05-07T01:50:58.978Z,90.08
2019-05-07T01:52:02.308Z,89.61
2019-05-07T01:53:00.338Z,89.77
2019-05-07T01:54:02.145Z,89.73
2019-05-07T01:55:00.110Z,89.04
2019-05-07T01:55:59.967Z,89.15
2019-05-07T01:57:02.648Z,89.36
2019-05-07T01:58:00.249Z,89.56
2019-05-07T01:59:02.383Z,89.15
2019-05-07T02:00:02.635Z,89.36
2019-05-07T02:01:02.797Z,88.94
2019-05-07T02:02:02.982Z,89.04
2019-05-07T02:03:02.805Z,88.64
2019-05-07T02:04:02.402Z,88.64
2019-05-07T02:05:03.246Z,89.15
2019-05-07T02:06:02.565Z,89.25
2019-05-07T02:07:02.834Z,88.94
2019-05-07T02:08:03.028Z,89.36
2019-05-07T02:09:03.026Z,89.87
2019-05-07T02:10:02.842Z,89.04
2019-05-07T02:11:03.443Z,88.36
2019-05-07T02:12:03.600Z,88.74
2019-05-07T02:13:02.845Z,88.46
2019-05-07T02:14:02.973Z,88.74
2019-05-07T02:15:03.118Z,89.46
2019-05-07T02:16:04.256Z,90.08
2019-05-07T02:17:05.106Z,90.80
2019-05-07T02:18:03.556Z,91.63
2019-05-07T02:19:03.690Z,91.42
2019-05-07T02:20:03.930Z,90.60
2019-05-07T02:21:04.059Z,90.84
2019-05-07T02:22:04.296Z,89.77
2019-05-07T02:23:04.431Z,89.67
2019-05-07T02:24:05.104Z,90.08
2019-05-07T02:25:04.733Z,89.61
2019-05-07T02:26:04.858Z,90.23
2019-05-07T02:27:05.606Z,90.23
2019-05-07T02:28:05.229Z,90.91
2019-05-07T02:29:05.376Z,90.70
2019-05-07T02:30:05.520Z,91.32
2019-05-07T02:31:06.129Z,91.01
2019-05-07T02:32:05.881Z,91.01
2019-05-07T02:33:06.117Z,91.01
2019-05-07T02:34:06.219Z,90.39
2019-05-07T02:35:06.379Z,89.87
2019-05-07T02:36:07.125Z,89.25
2019-05-07T02:37:06.742Z,89.04
2019-05-07T02:38:06.893Z,89.15
2019-05-07T02:39:07.029Z,89.25
2019-05-07T02:40:08.108Z,90.08
2019-05-07T02:41:07.492Z,90.39
2019-05-07T02:42:07.614Z,89.56
2019-05-07T02:43:07.875Z,89.46
2019-05-07T02:44:07.983Z,89.67
2019-05-07T02:45:08.101Z,89.71
2019-05-07T02:46:22.423Z,88.98
2019-05-07T02:47:12.892Z,90.39
2019-05-07T02:48:09.122Z,90.84
2019-05-07T02:49:08.884Z,90.23
2019-05-07T02:50:08.998Z,89.40
2019-05-07T02:51:09.114Z,88.94
2019-05-07T02:52:09.262Z,89.87
2019-05-07T02:53:09.429Z,91.22
2019-05-07T02:54:13.194Z,91.47
2019-05-07T02:55:13.411Z,91.05
2019-05-07T02:56:12.982Z,90.91
2019-05-07T02:57:16.591Z,90.95
2019-05-07T02:58:13.702Z,91.22
2019-05-07T02:59:13.353Z,91.32
2019-05-07T03:00:14.047Z,90.95
2019-05-07T03:01:13.430Z,91.74
2019-05-07T03:02:13.734Z,91.26
2019-05-07T03:03:13.882Z,90.53
2019-05-07T03:04:12.931Z,90.23
2019-05-07T03:05:13.711Z,91.05
2019-05-07T03:06:13.524Z,91.16
2019-05-07T03:07:13.324Z,90.84
2019-05-07T03:08:13.706Z,90.44
2019-05-07T03:09:14.371Z,89.92
2019-05-07T03:10:13.984Z,90.37
2019-05-07T03:11:14.279Z,90.16
2019-05-07T03:12:13.633Z,90.06
2019-05-07T03:13:14.090Z,91.09
2019-05-07T03:14:14.362Z,91.30
2019-05-07T03:15:13.365Z,91.30
2019-05-07T03:16:14.255Z,91.16
2019-05-07T03:17:13.582Z,90.89
2019-05-07T03:18:14.471Z,90.99
2019-05-07T03:19:14.820Z,91.30
2019-05-07T03:20:14.156Z,90.99
2019-05-07T03:21:15.123Z,90.47
2019-05-07T03:22:14.326Z,91.09
2019-05-07T03:23:14.575Z,90.58
2019-05-07T03:24:14.690Z,90.58
2019-05-07T03:25:14.962Z,90.06
2019-05-07T03:26:15.117Z,89.48
2019-05-07T03:27:15.226Z,90.20
2019-05-07T03:28:16.115Z,90.41
2019-05-07T03:29:15.463Z,91.14
2019-05-07T03:30:17.099Z,91.03
2019-05-07T03:31:17.456Z,90.93
2019-05-07T03:32:16.350Z,91.20
2019-05-07T03:33:17.246Z,90.78
2019-05-07T03:34:16.888Z,90.83
2019-05-07T03:35:17.170Z,90.00
2019-05-07T03:36:17.490Z,90.00
2019-05-07T03:37:17.148Z,90.20
2019-05-07T03:38:17.006Z,91.03
2019-05-07T03:39:17.140Z,91.14
2019-05-07T03:40:17.252Z,91.14
2019-05-07T03:41:18.400Z,91.35
2019-05-07T03:42:17.673Z,91.86
2019-05-07T03:43:17.760Z,91.55
2019-05-07T03:44:17.913Z,91.86
2019-05-07T03:45:18.047Z,91.66
2019-05-07T03:46:18.192Z,91.24
2019-05-07T03:47:18.361Z,91.35
2019-05-07T03:48:18.529Z,91.45
2019-05-07T03:49:18.663Z,91.80
2019-05-07T03:50:18.819Z,91.39
2019-05-07T03:51:18.971Z,91.35
2019-05-07T03:52:19.143Z,91.39
2019-05-07T03:53:19.312Z,91.80
2019-05-07T03:54:20.114Z,91.39
2019-05-07T03:55:19.635Z,91.39
2019-05-07T03:56:23.391Z,90.35
2019-05-07T03:57:23.460Z,91.49
2019-05-07T03:58:23.206Z,91.53
2019-05-07T03:59:23.171Z,91.33
2019-05-07T04:00:23.647Z,91.33
2019-05-07T04:01:23.718Z,91.22
2019-05-07T04:02:23.815Z,91.43
2019-05-07T04:03:24.319Z,91.22
2019-05-07T04:04:22.989Z,90.87
2019-05-07T04:05:23.198Z,91.80
2019-05-07T04:06:23.357Z,91.95
2019-05-07T04:07:23.456Z,91.22
2019-05-07T04:08:23.826Z,91.53
2019-05-07T04:09:24.151Z,91.64
2019-05-07T04:10:23.544Z,92.16
2019-05-07T04:11:23.191Z,92.05
2019-05-07T04:12:24.629Z,92.30
2019-05-07T04:13:24.154Z,91.74
2019-05-07T04:14:24.112Z,92.51
2019-05-07T04:15:23.579Z,91.89
2019-05-07T04:16:24.480Z,91.58
2019-05-07T04:17:26.986Z,91.47
2019-05-07T04:18:24.833Z,92.10
2019-05-07T04:19:24.045Z,92.20
2019-05-07T04:20:24.309Z,92.41
2019-05-07T04:21:24.433Z,92.16
2019-05-07T04:22:28.829Z,91.95
2019-05-07T04:23:25.711Z,92.16
2019-05-07T04:24:24.957Z,91.74
2019-05-07T04:25:25.091Z,91.58
2019-05-07T04:26:25.262Z,91.53
2019-05-07T04:27:25.406Z,92.36
2019-05-07T04:28:25.575Z,91.53
2019-05-07T04:29:25.729Z,91.12
2019-05-07T04:30:26.134Z,91.33
2019-05-07T04:31:26.018Z,91.22
2019-05-07T04:32:26.160Z,91.53
2019-05-07T04:33:26.284Z,91.02
2019-05-07T04:34:26.647Z,91.12
2019-05-07T04:35:27.620Z,91.49
2019-05-07T04:37:03.187Z,91.02
2019-05-07T04:37:26.967Z,91.39
2019-05-07T04:38:27.640Z,91.39
2019-05-07T04:39:27.243Z,91.39
2019-05-07T04:40:27.353Z,91.28
2019-05-07T04:41:27.616Z,91.08
2019-05-07T04:42:27.764Z,91.49
2019-05-07T04:43:27.881Z,91.91
2019-05-07T04:44:28.155Z,91.33
2019-05-07T04:45:28.636Z,91.85
2019-05-07T04:46:29.147Z,91.53
2019-05-07T04:47:38.410Z,91.74
2019-05-07T04:48:33.747Z,91.22
2019-05-07T04:49:29.156Z,91.12
2019-05-07T04:50:42.070Z,91.60
2019-05-07T04:51:33.613Z,92.32
2019-05-07T04:52:29.399Z,91.91
2019-05-07T04:53:32.707Z,92.01
2019-05-07T04:54:29.702Z,92.07
2019-05-07T04:55:33.173Z,91.76
2019-05-07T04:56:29.958Z,91.35
2019-05-07T04:57:32.853Z,90.52
2019-05-07T04:58:33.831Z,91.03
2019-05-07T04:59:32.972Z,91.66
2019-05-07T05:00:33.656Z,90.41
2019-05-07T05:01:32.870Z,90.37
2019-05-07T05:02:32.482Z,90.37
2019-05-07T05:03:34.698Z,91.09
2019-05-07T05:04:34.888Z,89.96
2019-05-07T05:05:33.101Z,90.06
2019-05-07T05:06:33.027Z,90.99
2019-05-07T05:07:33.582Z,90.99
2019-05-07T05:08:32.980Z,90.68
2019-05-07T05:09:32.900Z,91.72
2019-05-07T05:10:33.636Z,91.51
2019-05-07T05:11:33.736Z,91.41
2019-05-07T05:12:33.715Z,91.30
2019-05-07T05:13:33.323Z,91.51
2019-05-07T05:14:34.164Z,92.13
2019-05-07T05:15:33.259Z,91.99
2019-05-07T05:16:33.420Z,92.13
2019-05-07T05:17:46.914Z,92.19
2019-05-07T05:18:36.152Z,91.16
2019-05-07T05:19:33.995Z,91.67
2019-05-07T05:20:34.126Z,91.22
2019-05-07T05:21:34.253Z,91.88
2019-05-07T05:22:34.395Z,91.74
2019-05-07T05:23:34.566Z,92.15
2019-05-07T05:24:35.644Z,91.32
2019-05-07T05:25:34.853Z,91.01
2019-05-07T05:26:35.652Z,90.91
2019-05-07T05:27:35.649Z,91.28
2019-05-07T05:28:35.431Z,91.49
2019-05-07T05:29:35.578Z,91.07
2019-05-07T05:30:35.712Z,91.38
2019-05-07T05:31:36.656Z,89.94
2019-05-07T05:32:36.664Z,89.73
2019-05-07T05:33:36.418Z,89.11
2019-05-07T05:34:37.166Z,89.11
2019-05-07T05:35:36.816Z,88.28
2019-05-07T05:36:36.924Z,89.01
2019-05-07T05:37:37.155Z,89.07
2019-05-07T05:38:37.269Z,89.79
2019-05-07T05:39:37.519Z,89.69
2019-05-07T05:40:37.678Z,90.00
2019-05-07T05:41:38.072Z,89.89
2019-05-07T05:42:38.974Z,87.83
2019-05-07T05:43:38.209Z,88.14
2019-05-07T05:44:38.331Z,87.93
2019-05-07T05:45:38.563Z,86.65
2019-05-07T05:46:39.797Z,86.76
2019-05-07T05:47:42.115Z,87.17
2019-05-07T05:48:42.544Z,87.68
2019-05-07T05:49:39.475Z,87.48
2019-05-07T05:50:42.155Z,88.10
2019-05-07T05:51:39.857Z,87.37
2019-05-07T05:52:42.354Z,86.65
2019-05-07T05:53:40.322Z,85.58
2019-05-07T05:54:42.436Z,85.89
2019-05-07T05:55:42.705Z,86.51
2019-05-07T05:56:42.706Z,87.54
2019-05-07T05:57:42.486Z,88.12
2019-05-07T05:58:43.204Z,87.74
2019-05-07T05:59:49.291Z,85.75
2019-05-07T06:00:43.601Z,84.30
2019-05-07T06:01:42.625Z,84.41
2019-05-07T06:02:44.188Z,85.54
2019-05-07T06:03:43.172Z,84.51
2019-05-07T06:04:42.386Z,84.57
2019-05-07T06:05:42.689Z,84.16
2019-05-07T06:06:43.676Z,84.67
2019-05-07T06:07:43.677Z,84.22
2019-05-07T06:08:43.478Z,84.16
2019-05-07T06:09:44.304Z,83.61
2019-05-07T06:10:43.406Z,82.10
2019-05-07T06:11:43.698Z,81.54
2019-05-07T06:12:43.722Z,82.47
2019-05-07T06:13:43.860Z,83.50
2019-05-07T06:14:44.120Z,83.71
2019-05-07T06:15:44.215Z,84.08
2019-05-07T06:16:44.693Z,84.43
2019-05-07T06:17:44.559Z,83.36
2019-05-07T06:18:44.812Z,82.54
2019-05-07T06:19:44.954Z,83.67
2019-05-07T06:20:45.676Z,84.70
2019-05-07T06:21:45.686Z,83.94
2019-05-07T06:22:46.163Z,81.92
2019-05-07T06:23:46.176Z,80.02
2019-05-07T06:24:45.802Z,79.82
2019-05-07T06:25:46.070Z,80.13
2019-05-07T06:26:46.206Z,80.13
2019-05-07T06:27:46.466Z,79.99
2019-05-07T06:28:46.600Z,79.93
2019-05-07T06:29:46.718Z,80.91
2019-05-07T06:30:46.848Z,78.92
2019-05-07T06:31:47.677Z,76.56
2019-05-07T06:32:47.187Z,80.47
2019-05-07T06:33:47.325Z,79.03
2019-05-07T06:34:47.465Z,78.27
2019-05-07T06:35:47.601Z,80.53
2019-05-07T06:36:47.745Z,80.63
2019-05-07T06:37:48.195Z,80.02
2019-05-07T06:38:48.061Z,76.42
2019-05-07T06:39:48.713Z,74.67
2019-05-07T06:40:48.445Z,75.08
2019-05-07T06:41:48.710Z,74.77
2019-05-07T06:42:49.683Z,73.44
2019-05-07T06:43:49.177Z,72.09
2019-05-07T06:44:51.872Z,71.96
2019-05-07T06:45:51.747Z,73.02
2019-05-07T06:46:49.506Z,72.99
2019-05-07T06:47:51.948Z,73.61
2019-05-07T06:48:52.731Z,73.81
2019-05-07T06:49:52.217Z,73.98
2019-05-07T06:50:52.279Z,73.47
2019-05-07T06:51:52.813Z,73.85
2019-05-07T06:52:51.937Z,74.46
2019-05-07T06:53:51.988Z,72.48
2019-05-07T06:54:52.375Z,72.41
2019-05-07T06:55:52.672Z,72.10
2019-05-07T06:56:52.468Z,71.97
2019-05-07T06:57:53.060Z,70.26
2019-05-07T06:58:52.804Z,69.31
2019-05-07T06:59:53.165Z,68.25
2019-05-07T07:00:53.691Z,68.22
2019-05-07T07:01:52.931Z,67.81
2019-05-07T07:02:54.172Z,67.37
2019-05-07T07:03:52.748Z,65.80
2019-05-07T07:04:53.669Z,62.16
2019-05-07T07:05:52.779Z,63.89
2019-05-07T07:06:53.685Z,62.80
2019-05-07T07:07:53.687Z,62.14
2019-05-07T07:08:53.181Z,63.37
2019-05-07T07:09:53.320Z,65.93
2019-05-07T07:10:54.457Z,66.38
2019-05-07T07:11:54.222Z,66.28
2019-05-07T07:12:53.887Z,66.51
2019-05-07T07:13:54.013Z,65.90
2019-05-07T07:14:54.154Z,64.70
2019-05-07T07:15:55.213Z,63.98
2019-05-07T07:16:54.431Z,64.73
2019-05-07T07:17:54.565Z,65.65
2019-05-07T07:18:55.963Z,64.57
2019-05-07T07:19:55.862Z,63.62
2019-05-07T07:20:55.685Z,65.36
2019-05-07T07:21:55.678Z,62.77
2019-05-07T07:22:55.333Z,62.54
2019-05-07T07:23:55.477Z,63.93
2019-05-07T07:24:55.695Z,65.67
2019-05-07T07:25:55.815Z,62.81
2019-05-07T07:26:57.676Z,66.01
2019-05-07T07:27:56.155Z,65.02
2019-05-07T07:28:56.319Z,64.98
2019-05-07T07:29:56.545Z,63.75
2019-05-07T07:30:57.192Z,61.22
2019-05-07T07:31:56.828Z,65.62
2019-05-07T07:32:57.702Z,66.47
2019-05-07T07:33:57.190Z,64.12
2019-05-07T07:34:57.697Z,67.02
2019-05-07T07:35:57.447Z,63.66
2019-05-07T07:37:05.998Z,66.05
2019-05-07T07:37:59.710Z,66.67
2019-05-07T07:38:57.948Z,67.49
2019-05-07T07:39:58.078Z,68.30
2019-05-07T07:40:59.180Z,69.06
2019-05-07T07:41:58.714Z,69.81
2019-05-07T07:42:58.603Z,72.58
2019-05-07T07:43:58.754Z,72.89
2019-05-07T07:44:59.701Z,70.12
2019-05-07T07:46:02.072Z,68.81
2019-05-07T07:46:59.243Z,67.55
2019-05-07T07:47:59.406Z,68.30
2019-05-07T07:49:09.832Z,66.25
2019-05-07T07:50:02.675Z,67.24
2019-05-07T07:51:03.220Z,68.65
2019-05-07T07:52:03.174Z,66.42
2019-05-07T07:53:02.603Z,65.36
2019-05-07T07:54:02.562Z,65.57
2019-05-07T07:55:02.161Z,64.34
2019-05-07T07:56:02.685Z,63.00
2019-05-07T07:57:02.276Z,65.16
2019-05-07T07:58:02.647Z,62.90
2019-05-07T07:59:02.343Z,62.05
2019-05-07T08:00:02.600Z,60.10
2019-05-07T08:01:02.924Z,62.26
2019-05-07T08:02:03.213Z,62.26
2019-05-07T08:03:02.707Z,60.21
2019-05-07T08:04:02.891Z,58.54
2019-05-07T08:05:04.204Z,62.51
2019-05-07T08:06:02.698Z,61.71
2019-05-07T08:07:03.794Z,64.97
2019-05-07T08:08:03.025Z,60.56
2019-05-07T08:09:03.716Z,60.53
2019-05-07T08:10:03.327Z,58.73
2019-05-07T08:11:03.461Z,57.20
2019-05-07T08:12:03.826Z,53.90
2019-05-07T08:13:03.817Z,56.66
2019-05-07T08:14:03.956Z,52.26
2019-05-07T08:15:17.376Z,53.80
2019-05-07T08:16:06.304Z,56.05
2019-05-07T08:17:04.521Z,53.31
2019-05-07T08:18:04.684Z,54.64
2019-05-07T08:19:18.436Z,56.59
2019-05-07T08:20:07.045Z,55.94
2019-05-07T08:21:07.919Z,56.15
2019-05-07T08:22:05.407Z,56.74
2019-05-07T08:23:05.585Z,56.43
2019-05-07T08:24:05.705Z,59.30
2019-05-07T08:25:06.722Z,58.27
2019-05-07T08:26:06.077Z,55.71
2019-05-07T08:27:07.215Z,54.10
2019-05-07T08:28:06.740Z,54.51
2019-05-07T08:29:06.544Z,57.07
2019-05-07T08:30:07.230Z,56.69
2019-05-07T08:31:06.857Z,57.71
2019-05-07T08:32:07.002Z,58.33
2019-05-07T08:33:09.726Z,57.64
2019-05-07T08:34:08.376Z,58.25
2019-05-07T08:35:07.477Z,60.30
2019-05-07T08:36:07.625Z,59.58
2019-05-07T08:37:07.761Z,60.71
2019-05-07T08:38:07.921Z,60.47
2019-05-07T08:39:08.058Z,61.83
2019-05-07T08:40:08.229Z,61.83
2019-05-07T08:41:08.363Z,60.10
2019-05-07T08:42:08.493Z,61.86
2019-05-07T08:43:08.601Z,58.79
2019-05-07T08:44:12.326Z,58.48
2019-05-07T08:45:11.957Z,57.66
2019-05-07T08:46:09.225Z,56.00
2019-05-07T08:47:09.409Z,54.64
2019-05-07T08:48:09.650Z,56.74
2019-05-07T08:49:11.960Z,58.38
2019-05-07T08:50:34.126Z,55.26
2019-05-07T08:51:11.922Z,56.49
2019-05-07T08:52:12.043Z,57.13
2019-05-07T08:53:13.035Z,57.75
2019-05-07T08:54:12.295Z,58.15
2019-05-07T08:55:12.594Z,58.36
2019-05-07T08:56:12.521Z,58.74
2019-05-07T08:57:33.205Z,57.51
2019-05-07T08:58:12.033Z,59.02
2019-05-07T08:59:12.586Z,58.40
2019-05-07T09:00:12.385Z,58.40
2019-05-07T09:01:12.959Z,54.51
2019-05-07T09:02:12.837Z,54.41
2019-05-07T09:03:20.199Z,55.82
2019-05-07T09:04:14.404Z,56.02
2019-05-07T09:05:13.620Z,58.89
2019-05-07T09:06:12.861Z,57.33
2019-05-07T09:07:13.233Z,54.38
2019-05-07T09:08:14.177Z,51.82
2019-05-07T09:09:14.219Z,52.95
2019-05-07T09:10:13.603Z,51.64
2019-05-07T09:11:14.266Z,51.23
2019-05-07T09:12:13.889Z,51.77
2019-05-07T09:13:14.051Z,53.20
2019-05-07T09:14:14.183Z,55.36
2019-05-07T09:15:14.319Z,55.94
2019-05-07T09:16:14.473Z,58.51
2019-05-07T09:17:14.607Z,56.77
2019-05-07T09:18:14.766Z,57.18
2019-05-07T09:19:15.733Z,58.17
2019-05-07T09:20:15.723Z,55.23
2019-05-07T09:21:15.727Z,57.38
2019-05-07T09:22:15.339Z,56.64
2019-05-07T09:23:15.506Z,56.15
2019-05-07T09:24:15.624Z,55.64
2019-05-07T09:25:15.770Z,56.05
2019-05-07T09:26:15.968Z,58.92
2019-05-07T09:27:16.136Z,57.28
2019-05-07T09:28:16.296Z,55.85
2019-05-07T09:29:17.494Z,56.87
2019-05-07T09:30:16.622Z,52.97
2019-05-07T09:31:16.807Z,53.41
2019-05-07T09:32:16.986Z,53.82
2019-05-07T09:33:17.115Z,53.51
2019-05-07T09:34:17.234Z,53.92
2019-05-07T09:35:18.223Z,55.43
2019-05-07T09:36:17.576Z,55.56
2019-05-07T09:37:17.718Z,55.77
2019-05-07T09:38:18.722Z,55.77
2019-05-07T09:39:18.074Z,60.38
2019-05-07T09:40:18.228Z,56.07
2019-05-07T09:41:18.370Z,56.18
2019-05-07T09:42:18.503Z,54.41
2019-05-07T09:43:18.643Z,55.66
2019-05-07T09:44:18.788Z,56.56
2019-05-07T09:45:18.916Z,57.28
2019-05-07T09:46:20.744Z,58.54
2019-05-07T09:47:21.947Z,55.36
2019-05-07T09:48:19.554Z,55.26
2019-05-07T09:49:22.138Z,55.28
2019-05-07T09:50:21.892Z,56.71
2019-05-07T09:51:20.075Z,56.92
2019-05-07T09:52:20.239Z,55.69
2019-05-07T09:53:20.431Z,55.79
2019-05-07T09:54:20.599Z,56.62
2019-05-07T09:55:23.377Z,56.10
2019-05-07T09:56:22.919Z,56.71
2019-05-07T09:57:30.044Z,57.20
2019-05-07T09:58:35.658Z,57.23
2019-05-07T09:59:23.426Z,58.77
2019-05-07T10:00:22.623Z,60.21
2019-05-07T10:01:23.681Z,58.54
2019-05-07T10:02:23.727Z,59.66
2019-05-07T10:03:22.799Z,59.97
2019-05-07T10:04:23.378Z,59.56
2019-05-07T10:05:22.486Z,60.38
2019-05-07T10:06:22.928Z,60.49
2019-05-07T10:07:23.764Z,58.30
2019-05-07T10:08:23.020Z,58.10
2019-05-07T10:09:23.254Z,55.66
2019-05-07T10:10:23.285Z,55.64
2019-05-07T10:11:23.487Z,58.51
2019-05-07T10:12:23.646Z,53.77
2019-05-07T10:13:23.775Z,55.62
2019-05-07T10:14:24.244Z,53.77
2019-05-07T10:15:24.126Z,53.56
2019-05-07T10:16:24.268Z,53.56
2019-05-07T10:17:24.392Z,53.05
2019-05-07T10:18:24.519Z,53.16
2019-05-07T10:19:24.805Z,53.16
2019-05-07T10:20:25.745Z,52.95
2019-05-07T10:21:24.926Z,51.93
2019-05-07T10:22:25.199Z,51.31
2019-05-07T10:23:25.320Z,52.77
2019-05-07T10:24:25.763Z,54.08
2019-05-07T10:25:25.741Z,55.21
2019-05-07T10:26:26.740Z,55.21
2019-05-07T10:27:26.205Z,59.27
2019-05-07T10:28:26.447Z,55.51
2019-05-07T10:29:26.705Z,55.30
2019-05-07T10:30:27.736Z,54.97
2019-05-07T10:31:27.054Z,56.00
2019-05-07T10:32:27.177Z,54.57
2019-05-07T10:33:27.298Z,53.13
2019-05-07T10:34:27.763Z,54.36
2019-05-07T10:35:30.917Z,54.44
2019-05-07T10:36:27.778Z,51.50
2019-05-07T10:37:27.910Z,51.57
2019-05-07T10:38:28.064Z,51.67
2019-05-07T10:39:28.247Z,49.83
2019-05-07T10:40:28.368Z,49.63
2019-05-07T10:41:28.501Z,51.98
2019-05-07T10:42:29.245Z,52.90
2019-05-07T10:43:29.751Z,50.85
2019-05-07T10:44:29.255Z,52.19
2019-05-07T10:45:29.149Z,54.51
2019-05-07T10:46:31.922Z,55.64
2019-05-07T10:47:30.234Z,51.12
2019-05-07T10:48:32.014Z,51.12
2019-05-07T10:49:31.725Z,51.53
2019-05-07T10:50:36.335Z,51.12
2019-05-07T10:51:32.303Z,53.77
2019-05-07T10:52:31.834Z,51.73
2019-05-07T10:53:32.235Z,54.10
2019-05-07T10:54:31.243Z,54.51
2019-05-07T10:55:32.706Z,55.94
2019-05-07T10:56:32.620Z,54.54
2019-05-07T10:57:32.889Z,57.71
2019-05-07T10:58:31.990Z,56.10
2019-05-07T10:59:32.417Z,55.58
2019-05-07T11:00:33.101Z,57.12
2019-05-07T11:01:32.956Z,57.66
2019-05-07T11:02:33.038Z,58.28
2019-05-07T11:03:32.572Z,59.33
2019-05-07T11:04:42.123Z,56.67
2019-05-07T11:05:34.764Z,56.15
2019-05-07T11:06:32.698Z,55.10
2019-05-07T11:07:33.264Z,56.15
2019-05-07T11:08:33.747Z,58.10
2019-05-07T11:09:33.760Z,57.89
2019-05-07T11:10:34.238Z,56.56
2019-05-07T11:11:33.605Z,55.85
2019-05-07T11:12:33.762Z,54.41
2019-05-07T11:13:33.914Z,55.33
2019-05-07T11:14:34.047Z,53.90
2019-05-07T11:15:34.201Z,53.72
2019-05-07T11:16:34.354Z,53.92
2019-05-07T11:17:34.507Z,55.56
2019-05-07T11:18:34.751Z,55.26
2019-05-07T11:19:34.862Z,54.44
2019-05-07T11:20:46.416Z,55.26
2019-05-07T11:21:37.185Z,53.82
2019-05-07T11:22:35.390Z,54.74
2019-05-07T11:23:35.759Z,55.69
2019-05-07T11:24:35.765Z,55.87
2019-05-07T11:25:35.904Z,57.00
2019-05-07T11:26:36.024Z,57.82
2019-05-07T11:27:36.161Z,58.12
2019-05-07T11:28:36.302Z,58.03
2019-05-07T11:29:37.251Z,56.10
2019-05-07T11:30:36.612Z,57.92
2019-05-07T11:31:36.760Z,59.36
2019-05-07T11:32:36.881Z,60.49
2019-05-07T11:33:37.026Z,60.07
2019-05-07T11:34:37.186Z,58.54
2019-05-07T11:35:37.335Z,57.61
2019-05-07T11:36:37.522Z,57.51
2019-05-07T11:37:37.643Z,57.31
2019-05-07T11:38:37.785Z,57.71
2019-05-07T11:39:37.988Z,56.59
2019-05-07T11:40:38.138Z,55.87
2019-05-07T11:41:38.292Z,54.44
2019-05-07T11:42:38.441Z,56.46
2019-05-07T11:43:38.569Z,55.26
2019-05-07T11:44:38.766Z,55.98
2019-05-07T11:45:38.897Z,56.18
2019-05-07T11:46:39.043Z,55.05
2019-05-07T11:47:39.207Z,54.53
2019-05-07T11:48:39.377Z,55.77
2019-05-07T11:50:14.926Z,56.15
2019-05-07T11:50:39.764Z,55.13
2019-05-07T11:51:39.928Z,54.61
2019-05-07T11:52:40.078Z,55.74
2019-05-07T11:53:41.892Z,57.38
2019-05-07T11:54:42.163Z,56.67
2019-05-07T11:55:42.283Z,56.26
2019-05-07T11:56:42.328Z,53.59
2019-05-07T11:57:44.258Z,54.72
2019-05-07T11:58:42.185Z,56.13
2019-05-07T11:59:41.855Z,55.92
2019-05-07T12:00:42.723Z,54.92
2019-05-07T12:01:47.211Z,54.90
2019-05-07T12:02:47.128Z,55.21
2019-05-07T12:03:42.940Z,54.49
2019-05-07T12:04:43.333Z,54.05
2019-05-07T12:05:42.578Z,53.75
2019-05-07T12:06:43.334Z,54.87
2019-05-07T12:07:43.782Z,54.46
2019-05-07T12:08:49.812Z,54.13
2019-05-07T12:09:45.261Z,55.43
2019-05-07T12:10:44.269Z,56.02
2019-05-07T12:11:44.625Z,55.13
2019-05-07T12:12:43.872Z,54.97
2019-05-07T12:13:44.797Z,54.44
2019-05-07T12:14:44.145Z,54.16
2019-05-07T12:15:44.285Z,56.99
2019-05-07T12:16:45.314Z,52.91
2019-05-07T12:17:44.560Z,49.54
2019-05-07T12:18:44.683Z,50.45
2019-05-07T12:19:44.905Z,49.22
2019-05-07T12:20:45.298Z,48.43
2019-05-07T12:21:45.204Z,48.43
2019-05-07T12:22:45.348Z,49.58
2019-05-07T12:23:45.504Z,49.48
2019-05-07T12:24:45.839Z,50.81
2019-05-07T12:25:46.805Z,51.04
2019-05-07T12:26:45.914Z,52.87
2019-05-07T12:27:46.057Z,50.85
2019-05-07T12:28:46.213Z,50.42
2019-05-07T12:29:46.372Z,51.54
2019-05-07T12:30:46.510Z,50.12
2019-05-07T12:31:47.851Z,50.83
2019-05-07T12:32:47.802Z,52.67
2019-05-07T12:33:47.156Z,53.08
2019-05-07T12:34:48.283Z,51.98
2019-05-07T12:35:48.293Z,51.47
2019-05-07T12:36:47.797Z,51.78
2019-05-07T12:37:49.628Z,52.57
2019-05-07T12:39:21.940Z,51.54
2019-05-07T12:39:48.230Z,51.04
2019-05-07T12:40:49.328Z,49.40
2019-05-07T12:41:48.588Z,51.37
2019-05-07T12:42:48.722Z,49.52
2019-05-07T12:43:48.860Z,51.16
2019-05-07T12:44:48.991Z,51.75
2019-05-07T12:45:49.115Z,51.54
2019-05-07T12:46:49.371Z,52.78
2019-05-07T12:47:49.850Z,51.24
2019-05-07T12:48:49.688Z,50.22
2019-05-07T12:49:49.845Z,49.09
2019-05-07T12:50:52.134Z,49.22
2019-05-07T12:51:50.132Z,48.60
2019-05-07T12:52:50.299Z,49.52
2019-05-07T12:53:52.397Z,49.63
2019-05-07T12:54:52.485Z,49.55